Time;durP1;ratioP1;P1;durP2;ratioP2;P2;SDS_P1;SDS_P2;PMS_P1;PMS_P2;Temp;Humidity;BMP_temperature;BMP_pressure;BME280_temperature;BME280_humidity;BME280_pressure;Samples;Min_cycle;Max_cycle;Signal;HPM_P1;HPM_P2
2022/03/10 00:00:53;;;;;;;42.75;28.08;;;;;;;;;;5040796;28;20025;-67
2022/03/10 00:03:18;;;;;;;46.03;28.65;;;;;;;;;;5043521;28;20085;-67
2022/03/10 00:05:45;;;;;;;44.08;27.23;;;;;;;;;;5042611;28;20021;-67
2022/03/10 00:08:10;;;;;;;45.60;27.98;;;;;;;;;;5041143;28;20033;-67
2022/03/10 00:10:36;;;;;;;45.30;28.65;;;;;;;;;;5041282;28;20020;-67
2022/03/10 00:13:01;;;;;;;46.22;28.55;;;;;;;;;;5038621;28;20391;-67
2022/03/10 00:15:26;;;;;;;41.58;28.05;;;;;;;;;;5041212;28;20040;-68
2022/03/10 00:17:52;;;;;;;43.67;28.35;;;;;;;;;;5041977;28;20046;-66
2022/03/10 00:20:17;;;;;;;43.35;28.05;;;;;;;;;;5041759;28;20028;-67
2022/03/10 00:22:44;;;;;;;46.25;28.80;;;;;;;;;;5043506;28;20051;-67
2022/03/10 00:25:09;;;;;;;44.38;29.65;;;;;;;;;;5042441;28;20106;-68
2022/03/10 00:27:35;;;;;;;45.35;27.73;;;;;;;;;;5041450;28;20021;-68
2022/03/10 00:30:00;;;;;;;45.47;28.70;;;;;;;;;;5036691;28;20025;-67
2022/03/10 00:32:25;;;;;;;50.80;29.98;;;;;;;;;;5042811;28;20017;-67
2022/03/10 00:34:51;;;;;;;44.53;28.10;;;;;;;;;;5041719;28;20352;-67
2022/03/10 00:37:16;;;;;;;44.65;27.60;;;;;;;;;;5041059;28;20021;-67
2022/03/10 00:39:41;;;;;;;46.42;28.83;;;;;;;;;;5040972;28;20051;-67
2022/03/10 00:42:07;;;;;;;43.95;26.75;;;;;;;;;;5042829;28;20128;-67
2022/03/10 00:44:32;;;;;;;41.42;26.95;;;;;;;;;;5059895;28;20045;-67
2022/03/10 00:46:57;;;;;;;43.53;27.48;;;;;;;;;;5061273;28;20166;-68
2022/03/10 00:49:22;;;;;;;41.20;27.90;;;;;;;;;;5061295;28;20077;-67
2022/03/10 00:51:50;;;;;;;41.83;27.60;;;;;;;;;;5062109;28;20048;-66
2022/03/10 00:54:16;;;;;;;47.63;29.00;;;;;;;;;;5060059;28;20039;-67
2022/03/10 00:56:41;;;;;;;45.47;28.35;;;;;;;;;;5060633;28;20466;-67
2022/03/10 00:59:07;;;;;;;46.45;27.00;;;;;;;;;;5056193;28;20016;-67
2022/03/10 01:01:32;;;;;;;43.05;27.40;;;;;;;;;;5062130;28;20078;-68
2022/03/10 01:03:57;;;;;;;40.33;27.00;;;;;;;;;;5060103;28;20024;-67
2022/03/10 01:06:22;;;;;;;41.45;27.02;;;;;;;;;;5062118;28;20494;-67
2022/03/10 01:08:48;;;;;;;42.25;27.25;;;;;;;;;;5059977;28;20483;-67
2022/03/10 01:11:13;;;;;;;40.85;26.45;;;;;;;;;;5059906;28;20522;-68
2022/03/10 01:13:39;;;;;;;43.97;27.63;;;;;;;;;;5061651;28;20031;-67
2022/03/10 01:16:04;;;;;;;41.70;27.55;;;;;;;;;;5046194;28;20024;-67
2022/03/10 01:18:30;;;;;;;42.15;26.85;;;;;;;;;;5066283;28;20348;-67
2022/03/10 01:20:55;;;;;;;43.22;28.40;;;;;;;;;;5064036;28;20059;-67
2022/03/10 01:23:20;;;;;;;41.50;27.50;;;;;;;;;;5064655;28;20017;-67
2022/03/10 01:25:45;;;;;;;45.25;27.88;;;;;;;;;;5065650;28;20575;-67
2022/03/10 01:28:11;;;;;;;41.97;28.23;;;;;;;;;;5062474;28;20443;-67
2022/03/10 01:30:36;;;;;;;43.88;26.88;;;;;;;;;;5064465;28;20119;-68
2022/03/10 01:33:01;;;;;;;42.70;27.85;;;;;;;;;;5064312;28;20408;-66
2022/03/10 01:35:27;;;;;;;43.20;27.80;;;;;;;;;;5064788;28;20189;-66
2022/03/10 01:37:53;;;;;;;42.85;27.42;;;;;;;;;;5065837;28;20542;-67
2022/03/10 01:40:19;;;;;;;42.90;27.10;;;;;;;;;;5063857;28;20021;-67
2022/03/10 01:42:44;;;;;;;40.45;26.92;;;;;;;;;;5064290;28;20085;-67
2022/03/10 01:45:10;;;;;;;44.05;27.45;;;;;;;;;;5061254;28;20048;-67
2022/03/10 01:47:35;;;;;;;48.00;28.70;;;;;;;;;;5066390;28;20021;-67
2022/03/10 01:50:01;;;;;;;41.53;26.30;;;;;;;;;;5063564;28;20483;-68
2022/03/10 01:52:26;;;;;;;45.47;28.77;;;;;;;;;;5065005;28;20025;-67
2022/03/10 01:54:51;;;;;;;45.70;28.23;;;;;;;;;;5064265;28;20471;-68
2022/03/10 01:57:17;;;;;;;38.05;26.08;;;;;;;;;;5062164;28;20394;-67
2022/03/10 01:59:42;;;;;;;44.58;29.42;;;;;;;;;;5061913;28;20024;-67
2022/03/10 02:02:08;;;;;;;42.95;28.60;;;;;;;;;;5063512;28;20029;-67
2022/03/10 02:04:34;;;;;;;44.38;28.85;;;;;;;;;;5065338;28;20035;-67
2022/03/10 02:07:03;;;;;;;47.95;27.60;;;;;;;;;;5064116;28;20398;-66
2022/03/10 02:12:12;;;;;;;46.53;27.95;;;;;;;;;;5062612;28;20047;-66
2022/03/10 02:17:23;;;;;;;46.97;29.05;;;;;;;;;;5060450;28;20070;-67
2022/03/10 02:19:53;;;;;;;43.80;28.27;;;;;;;;;;5063656;28;20428;-67
2022/03/10 02:22:20;;;;;;;45.80;28.90;;;;;;;;;;5063261;28;20066;-67
2022/03/10 02:24:45;;;;;;;44.30;29.23;;;;;;;;;;5063529;28;20039;-67
2022/03/10 02:27:14;;;;;;;43.17;30.25;;;;;;;;;;5061710;28;20028;-68
2022/03/10 02:29:43;;;;;;;45.45;30.02;;;;;;;;;;5060487;28;20028;-66
2022/03/10 02:32:09;;;;;;;48.42;29.85;;;;;;;;;;5045814;28;20024;-66
2022/03/10 02:34:34;;;;;;;48.13;29.67;;;;;;;;;;5065382;28;20070;-66
2022/03/10 02:37:00;;;;;;;45.45;29.48;;;;;;;;;;5062679;28;20028;-68
2022/03/10 02:39:25;;;;;;;46.25;30.10;;;;;;;;;;5047302;28;20115;-66
2022/03/10 02:41:50;;;;;;;47.10;30.67;;;;;;;;;;5061859;28;20031;-67
2022/03/10 02:44:16;;;;;;;44.25;28.98;;;;;;;;;;5062817;28;20418;-67
2022/03/10 02:46:41;;;;;;;46.22;30.45;;;;;;;;;;5063196;28;20033;-67
2022/03/10 02:49:06;;;;;;;44.85;29.15;;;;;;;;;;5063485;28;20115;-67
2022/03/10 02:51:31;;;;;;;45.55;30.77;;;;;;;;;;5063476;28;20381;-67
2022/03/10 02:53:59;;;;;;;43.58;28.52;;;;;;;;;;5064143;28;20123;-67
2022/03/10 02:56:25;;;;;;;44.88;28.83;;;;;;;;;;5045846;28;20060;-67
2022/03/10 02:58:50;;;;;;;45.83;29.42;;;;;;;;;;5044796;28;20452;-67
2022/03/10 03:01:16;;;;;;;44.97;28.77;;;;;;;;;;5059077;28;20381;-68
2022/03/10 03:03:41;;;;;;;47.83;29.67;;;;;;;;;;5064182;28;20028;-67
2022/03/10 03:06:06;;;;;;;42.92;29.00;;;;;;;;;;5062654;28;20367;-67
2022/03/10 03:08:31;;;;;;;42.92;28.63;;;;;;;;;;5063202;28;20107;-67
2022/03/10 03:10:57;;;;;;;48.28;29.17;;;;;;;;;;5064596;28;20032;-67
2022/03/10 03:13:22;;;;;;;49.75;30.45;;;;;;;;;;5058953;28;20024;-67
2022/03/10 03:15:47;;;;;;;43.78;28.42;;;;;;;;;;5069432;28;20056;-67
2022/03/10 03:18:12;;;;;;;45.45;28.42;;;;;;;;;;5061723;28;20463;-68
2022/03/10 03:20:38;;;;;;;44.80;28.38;;;;;;;;;;5064081;28;20380;-68
2022/03/10 03:23:03;;;;;;;47.35;29.58;;;;;;;;;;5062416;28;20066;-67
2022/03/10 03:25:28;;;;;;;43.20;27.90;;;;;;;;;;5046273;28;20062;-67
2022/03/10 03:27:54;;;;;;;45.22;28.38;;;;;;;;;;5061893;28;20025;-67
2022/03/10 03:30:19;;;;;;;47.28;29.02;;;;;;;;;;5056530;28;20046;-68
2022/03/10 03:32:44;;;;;;;43.75;29.13;;;;;;;;;;5063126;28;20032;-66
2022/03/10 03:35:10;;;;;;;46.13;28.38;;;;;;;;;;5057430;28;20695;-67
2022/03/10 03:37:35;;;;;;;46.70;29.10;;;;;;;;;;5063508;28;20074;-66
2022/03/10 03:40:01;;;;;;;44.85;29.08;;;;;;;;;;5062201;28;20063;-66
2022/03/10 03:42:32;;;;;;;45.28;27.60;;;;;;;;;;5059273;28;20056;-66
2022/03/10 03:44:57;;;;;;;42.88;27.13;;;;;;;;;;5059904;28;20117;-67
2022/03/10 03:47:23;;;;;;;43.08;28.45;;;;;;;;;;5061470;28;20538;-68
2022/03/10 03:49:48;;;;;;;43.15;28.55;;;;;;;;;;5061621;28;20039;-67
2022/03/10 03:52:13;;;;;;;47.10;29.42;;;;;;;;;;5060972;28;20029;-67
2022/03/10 03:54:38;;;;;;;47.90;29.48;;;;;;;;;;5061800;28;20059;-67
2022/03/10 03:57:04;;;;;;;48.88;29.13;;;;;;;;;;5060030;28;20039;-67
2022/03/10 03:59:32;;;;;;;46.10;28.60;;;;;;;;;;5059026;28;20028;-66
2022/03/10 04:01:57;;;;;;;50.15;29.58;;;;;;;;;;5043642;28;20044;-67
2022/03/10 04:04:22;;;;;;;48.28;29.42;;;;;;;;;;5061884;28;20266;-66
2022/03/10 04:06:48;;;;;;;45.17;28.88;;;;;;;;;;5061842;28;20028;-66
2022/03/10 04:09:13;;;;;;;44.42;28.67;;;;;;;;;;5060369;28;20016;-67
2022/03/10 04:11:39;;;;;;;46.80;29.48;;;;;;;;;;5059752;28;20124;-67
2022/03/10 04:14:05;;;;;;;42.58;28.70;;;;;;;;;;5059012;28;20035;-67
2022/03/10 04:16:30;;;;;;;42.13;28.58;;;;;;;;;;5042262;28;20123;-67
2022/03/10 04:18:56;;;;;;;44.75;28.90;;;;;;;;;;5060812;28;20141;-68
2022/03/10 04:21:21;;;;;;;41.53;28.70;;;;;;;;;;5061687;28;20096;-66
2022/03/10 04:23:46;;;;;;;42.50;28.95;;;;;;;;;;5062786;28;20187;-66
2022/03/10 04:26:13;;;;;;;45.45;28.58;;;;;;;;;;5059602;28;20017;-66
2022/03/10 04:28:39;;;;;;;44.72;29.05;;;;;;;;;;5059444;28;20028;-66
2022/03/10 04:31:04;;;;;;;45.28;28.88;;;;;;;;;;5059476;28;20028;-67
2022/03/10 04:33:30;;;;;;;49.45;30.83;;;;;;;;;;5066029;28;20108;-67
2022/03/10 04:35:56;;;;;;;46.45;29.48;;;;;;;;;;5067452;28;20036;-67
2022/03/10 04:38:22;;;;;;;45.53;28.67;;;;;;;;;;5067210;28;20047;-67
2022/03/10 04:40:47;;;;;;;45.03;30.23;;;;;;;;;;5063893;28;20383;-67
2022/03/10 04:43:13;;;;;;;50.90;29.42;;;;;;;;;;5058489;28;20025;-67
2022/03/10 04:45:39;;;;;;;43.60;28.15;;;;;;;;;;5058108;28;20102;-67
2022/03/10 04:48:06;;;;;;;41.78;28.92;;;;;;;;;;5067174;28;20021;-66
2022/03/10 04:50:32;;;;;;;47.10;29.98;;;;;;;;;;5047240;28;20498;-66
2022/03/10 04:52:58;;;;;;;46.05;30.40;;;;;;;;;;5066002;28;20133;-67
2022/03/10 04:55:23;;;;;;;44.85;28.05;;;;;;;;;;5062131;28;20561;-67
2022/03/10 04:57:48;;;;;;;46.50;29.48;;;;;;;;;;5063270;28;20031;-67
2022/03/10 05:00:16;;;;;;;47.80;30.48;;;;;;;;;;5062048;28;20551;-67
2022/03/10 05:02:41;;;;;;;47.47;31.25;;;;;;;;;;5065038;28;20090;-66
2022/03/10 05:05:08;;;;;;;45.95;28.67;;;;;;;;;;5065855;28;20025;-67
2022/03/10 05:07:33;;;;;;;48.00;28.88;;;;;;;;;;5046811;28;20029;-67
2022/03/10 05:09:59;;;;;;;49.38;28.85;;;;;;;;;;5065432;28;20032;-66
2022/03/10 05:12:25;;;;;;;46.30;30.33;;;;;;;;;;5063085;28;20102;-67
2022/03/10 05:14:50;;;;;;;47.97;29.77;;;;;;;;;;5063887;28;20396;-67
2022/03/10 05:17:16;;;;;;;44.67;29.00;;;;;;;;;;5064047;28;20505;-66
2022/03/10 05:19:41;;;;;;;44.83;27.52;;;;;;;;;;5063962;28;20387;-66
2022/03/10 05:22:07;;;;;;;44.60;28.90;;;;;;;;;;5064615;28;20561;-67
2022/03/10 05:24:33;;;;;;;43.40;28.15;;;;;;;;;;5045845;28;20756;-67
2022/03/10 05:26:58;;;;;;;47.38;30.20;;;;;;;;;;5065140;28;20158;-67
2022/03/10 05:29:23;;;;;;;45.65;28.60;;;;;;;;;;5062757;28;20470;-66
2022/03/10 05:31:48;;;;;;;45.05;27.55;;;;;;;;;;5063988;28;20490;-67
2022/03/10 05:34:14;;;;;;;46.63;30.27;;;;;;;;;;5064707;28;20251;-67
2022/03/10 05:36:39;;;;;;;48.67;29.20;;;;;;;;;;5063246;28;20034;-67
2022/03/10 05:39:04;;;;;;;42.75;27.80;;;;;;;;;;5066902;28;20024;-66
2022/03/10 05:41:33;;;;;;;45.00;29.13;;;;;;;;;;5062766;28;20569;-67
2022/03/10 05:43:58;;;;;;;46.20;29.88;;;;;;;;;;5065834;28;20443;-66
2022/03/10 05:46:24;;;;;;;43.88;29.05;;;;;;;;;;5061499;28;20147;-66
2022/03/10 05:48:49;;;;;;;45.70;30.70;;;;;;;;;;5065365;28;20502;-67
2022/03/10 05:51:15;;;;;;;44.17;28.83;;;;;;;;;;5063545;28;20043;-67
2022/03/10 05:53:40;;;;;;;44.67;27.95;;;;;;;;;;5060974;28;20033;-67
2022/03/10 05:56:05;;;;;;;47.70;28.52;;;;;;;;;;5044106;28;20132;-67
2022/03/10 05:58:31;;;;;;;43.55;27.88;;;;;;;;;;5040635;28;20033;-67
2022/03/10 06:00:56;;;;;;;46.17;29.42;;;;;;;;;;5025168;28;20024;-66
2022/03/10 06:03:21;;;;;;;44.22;29.00;;;;;;;;;;5044281;28;20029;-66
2022/03/10 06:05:47;;;;;;;44.08;26.70;;;;;;;;;;5043181;28;20024;-66
2022/03/10 06:08:13;;;;;;;41.72;28.50;;;;;;;;;;5044827;28;20027;-67
2022/03/10 06:10:38;;;;;;;46.47;28.30;;;;;;;;;;5027864;28;20312;-67
2022/03/10 06:13:05;;;;;;;47.38;29.23;;;;;;;;;;5043213;28;20424;-66
2022/03/10 06:15:30;;;;;;;46.25;28.13;;;;;;;;;;5054178;28;20024;-67
2022/03/10 06:17:56;;;;;;;51.97;30.38;;;;;;;;;;5065639;28;20031;-67
2022/03/10 06:20:21;;;;;;;45.28;28.60;;;;;;;;;;5061756;28;20020;-67
2022/03/10 06:22:46;;;;;;;44.85;29.48;;;;;;;;;;5066001;28;20101;-67
2022/03/10 06:25:11;;;;;;;48.22;29.90;;;;;;;;;;5064553;28;20028;-68
2022/03/10 06:27:37;;;;;;;46.75;28.75;;;;;;;;;;5061084;28;20120;-67
2022/03/10 06:30:02;;;;;;;44.55;29.25;;;;;;;;;;5061716;28;20339;-66
2022/03/10 06:32:27;;;;;;;42.75;27.23;;;;;;;;;;5063026;28;20028;-67
2022/03/10 06:34:54;;;;;;;42.88;27.60;;;;;;;;;;5062383;28;20032;-68
2022/03/10 06:37:20;;;;;;;51.13;30.45;;;;;;;;;;5059925;28;20024;-68
2022/03/10 06:39:45;;;;;;;45.67;30.00;;;;;;;;;;5061970;28;20036;-67
2022/03/10 06:42:11;;;;;;;49.42;30.27;;;;;;;;;;5046175;28;20032;-67
2022/03/10 06:44:36;;;;;;;42.85;27.13;;;;;;;;;;5036857;28;20576;-66
2022/03/10 06:47:03;;;;;;;46.22;28.42;;;;;;;;;;5043825;28;20186;-68
2022/03/10 06:49:28;;;;;;;47.83;29.38;;;;;;;;;;5042322;28;20112;-70
2022/03/10 06:51:54;;;;;;;41.33;28.08;;;;;;;;;;5060962;28;20561;-67
2022/03/10 06:54:23;;;;;;;43.88;28.20;;;;;;;;;;5062102;28;20441;-68
2022/03/10 06:56:48;;;;;;;43.42;28.33;;;;;;;;;;5061691;28;20013;-69
2022/03/10 06:59:13;;;;;;;44.38;29.10;;;;;;;;;;5060273;28;20020;-68
2022/03/10 07:01:38;;;;;;;50.33;28.88;;;;;;;;;;5058750;28;20051;-67
2022/03/10 07:04:04;;;;;;;44.15;27.88;;;;;;;;;;5063832;28;20220;-67
2022/03/10 07:06:29;;;;;;;41.55;28.77;;;;;;;;;;5060812;28;20033;-69
2022/03/10 07:08:54;;;;;;;50.17;30.02;;;;;;;;;;5062027;28;20024;-67
2022/03/10 07:11:25;;;;;;;47.45;31.98;;;;;;;;;;5062616;28;20088;-66
2022/03/10 07:13:50;;;;;;;42.92;29.15;;;;;;;;;;5059250;28;20347;-67
2022/03/10 07:16:16;;;;;;;43.55;28.27;;;;;;;;;;5060031;28;20119;-67
2022/03/10 07:18:41;;;;;;;49.90;29.80;;;;;;;;;;5059885;28;20159;-68
2022/03/10 07:21:06;;;;;;;47.70;29.88;;;;;;;;;;5061840;28;20028;-67
2022/03/10 07:23:32;;;;;;;44.50;29.33;;;;;;;;;;5061093;28;20464;-66
2022/03/10 07:25:57;;;;;;;47.65;29.80;;;;;;;;;;5061981;28;20025;-67
2022/03/10 07:28:24;;;;;;;45.30;29.27;;;;;;;;;;5057368;28;20038;-67
2022/03/10 07:30:49;;;;;;;42.83;28.00;;;;;;;;;;5058833;28;20047;-68
2022/03/10 07:33:14;;;;;;;46.08;29.55;;;;;;;;;;5060812;28;20068;-67
2022/03/10 07:35:40;;;;;;;43.63;29.10;;;;;;;;;;5060366;28;20525;-67
2022/03/10 07:38:05;;;;;;;42.88;28.60;;;;;;;;;;5062607;28;20191;-67
2022/03/10 07:40:30;;;;;;;44.47;29.23;;;;;;;;;;5060290;28;20043;-67
2022/03/10 07:42:56;;;;;;;42.00;28.67;;;;;;;;;;5062554;28;20029;-68
2022/03/10 07:45:22;;;;;;;45.67;28.27;;;;;;;;;;5056842;28;20053;-67
2022/03/10 07:47:47;;;;;;;42.67;29.13;;;;;;;;;;5060169;28;20024;-67
2022/03/10 07:50:12;;;;;;;44.58;29.08;;;;;;;;;;5061438;28;20038;-67
2022/03/10 07:52:39;;;;;;;39.03;28.05;;;;;;;;;;5060004;28;20363;-67
2022/03/10 07:55:06;;;;;;;42.65;27.95;;;;;;;;;;5061773;28;20467;-66
2022/03/10 07:57:31;;;;;;;44.55;29.85;;;;;;;;;;5059083;28;20028;-66
2022/03/10 07:59:56;;;;;;;39.92;27.40;;;;;;;;;;5058924;28;20016;-66
2022/03/10 08:02:22;;;;;;;42.58;28.65;;;;;;;;;;5063133;28;20024;-67
2022/03/10 08:04:48;;;;;;;44.33;27.95;;;;;;;;;;5059545;28;20459;-67
2022/03/10 08:07:13;;;;;;;43.42;28.20;;;;;;;;;;5063289;28;20055;-67
2022/03/10 08:09:38;;;;;;;46.17;28.45;;;;;;;;;;5058753;28;20128;-68
2022/03/10 08:12:04;;;;;;;43.28;27.67;;;;;;;;;;5061252;28;20514;-67
2022/03/10 08:14:30;;;;;;;42.63;28.40;;;;;;;;;;5058025;28;20483;-66
2022/03/10 08:16:56;;;;;;;41.70;26.88;;;;;;;;;;5059231;28;20043;-69
2022/03/10 08:19:21;;;;;;;44.28;28.45;;;;;;;;;;5063978;28;20451;-66
2022/03/10 08:21:47;;;;;;;44.13;28.63;;;;;;;;;;5059768;28;20093;-67
2022/03/10 08:24:13;;;;;;;39.88;27.88;;;;;;;;;;5063294;28;20111;-67
2022/03/10 08:26:39;;;;;;;39.70;28.15;;;;;;;;;;5062212;28;20116;-67
2022/03/10 08:29:04;;;;;;;42.15;27.27;;;;;;;;;;5059783;28;20379;-67
2022/03/10 08:31:30;;;;;;;41.20;28.13;;;;;;;;;;5060686;28;20031;-67
2022/03/10 08:33:55;;;;;;;42.40;27.98;;;;;;;;;;5063506;28;20025;-67
2022/03/10 08:36:20;;;;;;;40.55;28.63;;;;;;;;;;5061469;28;20035;-67
2022/03/10 08:38:46;;;;;;;40.75;28.27;;;;;;;;;;5060867;28;20699;-66
2022/03/10 08:41:11;;;;;;;45.67;29.90;;;;;;;;;;5063295;28;20032;-67
2022/03/10 08:43:37;;;;;;;38.08;27.17;;;;;;;;;;5055877;28;20557;-67
2022/03/10 08:46:03;;;;;;;41.90;28.25;;;;;;;;;;5061881;28;20044;-67
2022/03/10 08:48:31;;;;;;;43.95;29.38;;;;;;;;;;5059730;28;20387;-67
2022/03/10 08:50:57;;;;;;;42.25;29.27;;;;;;;;;;5062046;28;20024;-68
2022/03/10 08:53:22;;;;;;;42.60;30.38;;;;;;;;;;5062616;28;20443;-67
2022/03/10 08:55:48;;;;;;;42.97;30.58;;;;;;;;;;5059706;28;20051;-67
2022/03/10 08:58:18;;;;;;;40.92;27.83;;;;;;;;;;5059776;28;20479;-67
2022/03/10 09:00:43;;;;;;;45.78;30.50;;;;;;;;;;5058322;28;20025;-68
2022/03/10 09:03:08;;;;;;;42.63;29.27;;;;;;;;;;5062475;28;20036;-66
2022/03/10 09:05:36;;;;;;;43.20;28.55;;;;;;;;;;5058070;28;20394;-68
2022/03/10 09:08:01;;;;;;;42.75;29.55;;;;;;;;;;5061899;28;20237;-69
2022/03/10 09:10:28;;;;;;;43.97;30.15;;;;;;;;;;5060068;28;20028;-66
2022/03/10 09:12:53;;;;;;;41.45;28.83;;;;;;;;;;5057784;28;20463;-67
2022/03/10 09:15:19;;;;;;;42.85;28.95;;;;;;;;;;5058925;28;20032;-68
2022/03/10 09:17:44;;;;;;;40.75;29.02;;;;;;;;;;5060732;28;20467;-68
2022/03/10 09:20:11;;;;;;;40.00;28.65;;;;;;;;;;5061591;28;20178;-67
2022/03/10 09:22:36;;;;;;;40.65;28.65;;;;;;;;;;5061200;28;20017;-66
2022/03/10 09:25:02;;;;;;;41.72;29.45;;;;;;;;;;5060691;28;20036;-67
2022/03/10 09:27:29;;;;;;;41.30;29.50;;;;;;;;;;5059735;28;20604;-67
2022/03/10 09:29:54;;;;;;;41.35;29.55;;;;;;;;;;5040622;28;20430;-66
2022/03/10 09:32:19;;;;;;;44.95;29.05;;;;;;;;;;5063501;28;20032;-68
2022/03/10 09:34:45;;;;;;;40.33;28.70;;;;;;;;;;5063752;28;20047;-68
2022/03/10 09:37:11;;;;;;;39.03;28.45;;;;;;;;;;5064469;28;20153;-67
2022/03/10 09:39:36;;;;;;;39.22;28.42;;;;;;;;;;5062405;28;20025;-67
2022/03/10 09:42:04;;;;;;;39.55;28.73;;;;;;;;;;5062555;28;20024;-66
2022/03/10 09:44:32;;;;;;;38.15;27.98;;;;;;;;;;5063607;28;20031;-67
2022/03/10 09:47:03;;;;;;;40.08;29.90;;;;;;;;;;5025967;28;20021;-67
2022/03/10 09:49:28;;;;;;;40.00;28.63;;;;;;;;;;5046495;28;20064;-66
2022/03/10 09:51:54;;;;;;;38.10;28.23;;;;;;;;;;5024783;28;20340;-66
2022/03/10 09:54:21;;;;;;;39.78;28.58;;;;;;;;;;5045095;28;20040;-65
2022/03/10 09:56:46;;;;;;;40.58;27.73;;;;;;;;;;5040246;28;20408;-67
2022/03/10 09:59:12;;;;;;;40.40;29.05;;;;;;;;;;5044234;28;20492;-68
2022/03/10 10:01:37;;;;;;;41.63;29.20;;;;;;;;;;5043346;28;20025;-68
2022/03/10 10:04:03;;;;;;;40.70;28.40;;;;;;;;;;5045200;28;20403;-67
2022/03/10 10:06:28;;;;;;;37.97;28.33;;;;;;;;;;5044587;28;20086;-67
2022/03/10 10:08:57;;;;;;;41.17;28.00;;;;;;;;;;5024346;28;20392;-66
2022/03/10 10:11:32;;;;;;;42.88;29.33;;;;;;;;;;5043481;28;20443;-68
2022/03/10 10:13:58;;;;;;;38.92;29.55;;;;;;;;;;5040959;28;20147;-65
2022/03/10 10:16:23;;;;;;;42.53;28.30;;;;;;;;;;5040500;28;20021;-68
2022/03/10 10:18:53;;;;;;;41.05;28.52;;;;;;;;;;5041886;28;20032;-66
2022/03/10 10:21:22;;;;;;;41.88;29.02;;;;;;;;;;5045009;28;20021;-67
2022/03/10 10:23:48;;;;;;;39.85;29.73;;;;;;;;;;5042570;28;20013;-68
2022/03/10 10:26:13;;;;;;;39.85;28.90;;;;;;;;;;5044320;28;20438;-68
2022/03/10 10:28:43;;;;;;;38.55;28.05;;;;;;;;;;5036887;28;20433;-67
2022/03/10 10:31:15;;;;;;;40.75;29.55;;;;;;;;;;5042620;28;20488;-67
2022/03/10 10:33:41;;;;;;;38.65;29.35;;;;;;;;;;5043595;28;20130;-67
2022/03/10 10:36:12;;;;;;;38.75;29.20;;;;;;;;;;5041700;28;20036;-67
2022/03/10 10:38:38;;;;;;;43.40;30.98;;;;;;;;;;5041752;28;20047;-68
2022/03/10 10:41:20;;;;;;;40.58;29.30;;;;;;;;;;5042049;28;20021;-67
2022/03/10 10:43:47;;;;;;;46.73;29.13;;;;;;;;;;5021641;28;20020;-67
2022/03/10 10:46:28;;;;;;;36.92;28.48;;;;;;;;;;5059881;28;20350;-67
2022/03/10 10:48:54;;;;;;;37.95;28.42;;;;;;;;;;5060040;28;20497;-68
2022/03/10 10:51:36;;;;;;;41.17;29.08;;;;;;;;;;5062604;28;20124;-67
2022/03/10 10:54:03;;;;;;;38.53;28.52;;;;;;;;;;5060078;28;20032;-67
2022/03/10 10:56:29;;;;;;;36.80;28.13;;;;;;;;;;5055476;28;20020;-67
2022/03/10 10:58:54;;;;;;;36.90;27.98;;;;;;;;;;5059375;28;20430;-67
2022/03/10 11:01:26;;;;;;;39.22;28.52;;;;;;;;;;5058883;28;20328;-66
2022/03/10 11:03:52;;;;;;;40.60;29.17;;;;;;;;;;5061153;28;20510;-67
2022/03/10 11:06:17;;;;;;;38.25;29.63;;;;;;;;;;5059493;28;20302;-67
2022/03/10 11:08:42;;;;;;;36.95;28.88;;;;;;;;;;5060284;28;20017;-67
2022/03/10 11:11:08;;;;;;;40.97;28.83;;;;;;;;;;5060491;28;20381;-67
2022/03/10 11:13:33;;;;;;;38.03;28.85;;;;;;;;;;5058646;28;20079;-69
2022/03/10 11:15:58;;;;;;;38.50;28.73;;;;;;;;;;5058186;28;20580;-68
2022/03/10 11:18:23;;;;;;;34.92;26.88;;;;;;;;;;5063401;28;20472;-67
2022/03/10 11:20:50;;;;;;;38.08;28.98;;;;;;;;;;5059954;28;20024;-66
2022/03/10 11:23:18;;;;;;;37.42;29.98;;;;;;;;;;5060942;28;20099;-68
2022/03/10 11:26:02;;;;;;;36.47;28.90;;;;;;;;;;5058292;28;20499;-67
2022/03/10 11:28:28;;;;;;;39.72;29.98;;;;;;;;;;5059260;28;20400;-68
2022/03/10 11:30:54;;;;;;;39.33;28.95;;;;;;;;;;5059785;28;20020;-67
2022/03/10 11:33:19;;;;;;;35.78;27.02;;;;;;;;;;5061151;28;20056;-68
2022/03/10 11:35:53;;;;;;;38.65;28.00;;;;;;;;;;5062909;28;20074;-68
2022/03/10 11:38:30;;;;;;;36.70;26.90;;;;;;;;;;5061242;28;20028;-68
2022/03/10 11:40:56;;;;;;;32.78;26.33;;;;;;;;;;5059360;28;20070;-68
2022/03/10 11:43:34;;;;;;;33.72;26.92;;;;;;;;;;5040715;28;20446;-68
2022/03/10 11:46:19;;;;;;;34.13;25.92;;;;;;;;;;5038766;28;20128;-68
2022/03/10 11:49:00;;;;;;;36.45;26.10;;;;;;;;;;5042691;28;20075;-68
2022/03/10 11:51:40;;;;;;;36.85;27.13;;;;;;;;;;5043318;28;20029;-68
2022/03/10 11:54:06;;;;;;;35.10;25.55;;;;;;;;;;5025010;28;20028;-67
2022/03/10 11:56:44;;;;;;;33.28;25.70;;;;;;;;;;5037981;28;20032;-68
2022/03/10 11:59:16;;;;;;;33.92;25.80;;;;;;;;;;5059727;28;20278;-67
2022/03/10 12:01:45;;;;;;;34.60;24.92;;;;;;;;;;5060163;28;20325;-66
2022/03/10 12:04:16;;;;;;;35.10;26.27;;;;;;;;;;5062339;28;20672;-68
2022/03/10 12:07:01;;;;;;;32.88;25.65;;;;;;;;;;5063179;28;20110;-67
2022/03/10 12:09:31;;;;;;;33.67;26.05;;;;;;;;;;5061264;28;20047;-67
2022/03/10 12:12:16;;;;;;;33.55;25.70;;;;;;;;;;5057324;28;20553;-67
2022/03/10 12:14:42;;;;;;;33.78;24.40;;;;;;;;;;5056781;28;20537;-68
2022/03/10 12:17:44;;;;;;;30.77;23.88;;;;;;;;;;5058683;28;20247;-68
2022/03/10 12:20:13;;;;;;;30.80;24.00;;;;;;;;;;5022703;28;20437;-68
2022/03/10 12:22:38;;;;;;;30.33;22.35;;;;;;;;;;5058711;28;20024;-67
2022/03/10 12:25:16;;;;;;;28.58;21.42;;;;;;;;;;5058427;28;20028;-68
2022/03/10 12:27:51;;;;;;;29.60;21.83;;;;;;;;;;5060261;28;20171;-67
2022/03/10 12:30:19;;;;;;;27.77;20.80;;;;;;;;;;5057660;28;20295;-66
2022/03/10 12:32:48;;;;;;;30.98;20.65;;;;;;;;;;5062723;28;20066;-67
2022/03/10 12:35:13;;;;;;;26.98;20.40;;;;;;;;;;5059640;28;20028;-67
2022/03/10 12:37:45;;;;;;;29.65;20.02;;;;;;;;;;5061425;28;20031;-67
2022/03/10 12:40:16;;;;;;;26.25;18.75;;;;;;;;;;5058699;28;20149;-68
2022/03/10 12:42:41;;;;;;;26.73;20.00;;;;;;;;;;5061734;28;20031;-67
2022/03/10 12:45:07;;;;;;;29.23;19.25;;;;;;;;;;5054820;28;20044;-67
2022/03/10 12:47:33;;;;;;;30.08;19.17;;;;;;;;;;5063346;28;20450;-68
2022/03/10 12:49:58;;;;;;;25.70;19.45;;;;;;;;;;5057624;28;20418;-68
2022/03/10 12:52:27;;;;;;;26.15;19.40;;;;;;;;;;5062866;28;20381;-68
2022/03/10 12:54:52;;;;;;;25.48;19.75;;;;;;;;;;5058702;28;20029;-67
2022/03/10 12:57:18;;;;;;;30.02;20.55;;;;;;;;;;5042246;28;20459;-68
2022/03/10 12:59:43;;;;;;;27.73;20.48;;;;;;;;;;5057324;28;20472;-67
2022/03/10 13:02:12;;;;;;;30.42;20.23;;;;;;;;;;5059591;28;20119;-67
2022/03/10 13:04:59;;;;;;;27.05;20.08;;;;;;;;;;5060769;28;20111;-67
2022/03/10 13:07:25;;;;;;;28.15;20.35;;;;;;;;;;5064259;28;20020;-66
2022/03/10 13:09:54;;;;;;;29.95;20.83;;;;;;;;;;5064793;28;20024;-67
2022/03/10 13:12:30;;;;;;;29.20;20.55;;;;;;;;;;5062213;28;20035;-68
2022/03/10 13:14:58;;;;;;;26.48;19.65;;;;;;;;;;5056705;28;20040;-67
2022/03/10 13:17:50;;;;;;;24.77;19.98;;;;;;;;;;5066040;28;20086;-66
2022/03/10 13:20:23;;;;;;;28.48;20.55;;;;;;;;;;5061761;28;20067;-67
2022/03/10 13:22:51;;;;;;;26.92;20.30;;;;;;;;;;5066816;28;20089;-66
2022/03/10 13:25:18;;;;;;;25.85;19.88;;;;;;;;;;5065555;28;20051;-69
2022/03/10 13:27:44;;;;;;;27.40;19.85;;;;;;;;;;5063054;28;20052;-67
2022/03/10 13:30:26;;;;;;;24.75;19.23;;;;;;;;;;5060273;28;20323;-67
2022/03/10 13:32:54;;;;;;;31.25;19.00;;;;;;;;;;5063536;28;20393;-68
2022/03/10 13:35:20;;;;;;;26.25;20.17;;;;;;;;;;5050683;28;20119;-69
2022/03/10 13:37:46;;;;;;;26.35;19.92;;;;;;;;;;5064549;28;20021;-68
2022/03/10 13:40:15;;;;;;;27.85;20.08;;;;;;;;;;5044220;28;20024;-68
2022/03/10 13:42:43;;;;;;;26.10;20.30;;;;;;;;;;5042519;28;20431;-67
2022/03/10 13:45:10;;;;;;;26.45;20.00;;;;;;;;;;5039098;28;20132;-68
2022/03/10 13:47:54;;;;;;;27.90;19.38;;;;;;;;;;5043970;28;20036;-69
2022/03/10 13:50:19;;;;;;;33.38;19.75;;;;;;;;;;5044471;28;20017;-69
2022/03/10 13:52:45;;;;;;;26.60;20.77;;;;;;;;;;5046943;28;20025;-69
2022/03/10 13:55:11;;;;;;;24.17;18.58;;;;;;;;;;5043344;28;20109;-70
2022/03/10 13:57:36;;;;;;;27.70;19.05;;;;;;;;;;5042495;28;20017;-69
2022/03/10 14:00:05;;;;;;;24.45;18.33;;;;;;;;;;5037806;28;20475;-69
2022/03/10 14:02:31;;;;;;;25.90;19.27;;;;;;;;;;5044719;28;20028;-70
2022/03/10 14:04:56;;;;;;;24.60;19.77;;;;;;;;;;5042122;28;20372;-68
2022/03/10 14:07:22;;;;;;;26.55;19.80;;;;;;;;;;5045144;28;20043;-67
2022/03/10 14:09:48;;;;;;;25.27;19.52;;;;;;;;;;5044736;28;20126;-68
2022/03/10 14:12:18;;;;;;;26.30;19.13;;;;;;;;;;5038385;28;20502;-66
2022/03/10 14:14:47;;;;;;;24.08;19.63;;;;;;;;;;5040443;28;20021;-67
2022/03/10 14:17:13;;;;;;;23.67;19.35;;;;;;;;;;5059752;28;20284;-67
2022/03/10 14:19:38;;;;;;;27.05;19.92;;;;;;;;;;5064546;28;20024;-67